Ovid, Michigan
Current Conditions -  °F | °C
As of 4:14 AM on Thursday 23 Oct 2014 (Local Time) from KRNP Reporting Station
Haze Haze  
Wind Chill: 31°   Ceiling: Unl
Heat Index: 31°   Visibility: 5mi
Dew Point: 31°   Wind: 0mph
Humidity: 100%   Direction: NA
Pressure: 30.27"   Gusts: NA
Location:  43.01°N, 84.37°W
Report Text: KRNP 230814Z AUTO 00000KT 5SM BR CLR M01/M01 A3027 RMK AO2 T10061006
Loading
Personal Weather Stations






























Interactive Weather Map
Tropical Storm Tracking
New forecast layout! Learn more

10-Day Weather Forecast

Advertisements
Track Severe Weather on mobile